Time;durP1;ratioP1;P1;durP2;ratioP2;P2;SDS_P1;SDS_P2;PMS_P1;PMS_P2;Temp;Humidity;BMP_temperature;BMP_pressure;BME280_temperature;BME280_humidity;BME280_pressure;Samples;Min_cycle;Max_cycle;Signal;HPM_P1;HPM_P2
2023/01/22 00:02:03;;;;;;;67.82;35.10;;;-3.00;83.00;;;;;;4987018;28;20030;-64
2023/01/22 00:04:29;;;;;;;61.63;34.25;;;-3.00;82.10;;;;;;5010762;28;20338;-64
2023/01/22 00:06:54;;;;;;;67.40;35.42;;;-3.00;83.10;;;;;;5013545;28;20033;-63
2023/01/22 00:09:21;;;;;;;55.72;30.05;;;-3.00;83.20;;;;;;5015017;28;20030;-65
2023/01/22 00:11:47;;;;;;;59.22;31.33;;;-3.00;83.20;;;;;;5013191;28;20124;-64
2023/01/22 00:14:13;;;;;;;63.58;33.75;;;-3.10;82.90;;;;;;5016732;28;20026;-65
2023/01/22 00:16:40;;;;;;;72.68;35.55;;;-3.00;82.70;;;;;;5022634;28;20038;-63
2023/01/22 00:19:06;;;;;;;64.47;32.63;;;-3.00;83.10;;;;;;5014633;28;20030;-65
2023/01/22 00:21:31;;;;;;;63.17;31.45;;;-3.00;82.30;;;;;;5014631;28;20091;-64
2023/01/22 00:23:57;;;;;;;70.10;32.90;;;-3.10;83.00;;;;;;4998712;28;20036;-64
2023/01/22 00:26:22;;;;;;;59.03;31.70;;;-3.10;82.10;;;;;;5011872;28;20030;-64
2023/01/22 00:28:48;;;;;;;65.22;32.15;;;-3.10;82.60;;;;;;5016196;28;20304;-64
2023/01/22 00:31:15;;;;;;;58.25;28.75;;;-3.10;82.20;;;;;;5013240;28;20042;-64
2023/01/22 00:33:41;;;;;;;74.13;34.53;;;-3.20;82.40;;;;;;5012772;28;20056;-64
2023/01/22 00:36:09;;;;;;;63.22;31.10;;;-3.10;80.80;;;;;;5010137;28;20026;-64
2023/01/22 00:38:35;;;;;;;67.63;32.10;;;-3.10;81.00;;;;;;5016807;28;20026;-64
2023/01/22 00:41:02;;;;;;;72.38;34.90;;;-3.10;81.70;;;;;;5005245;28;20044;-64
2023/01/22 00:43:29;;;;;;;56.42;28.65;;;-3.20;80.70;;;;;;5014007;28;20033;-64
2023/01/22 00:45:54;;;;;;;68.22;34.05;;;-3.10;80.70;;;;;;5014403;28;20113;-64
2023/01/22 00:48:23;;;;;;;67.57;34.63;;;-3.10;80.90;;;;;;5014972;28;20112;-63
2023/01/22 00:50:48;;;;;;;52.80;28.42;;;-3.10;80.70;;;;;;5012679;28;20108;-64
2023/01/22 00:53:14;;;;;;;58.05;30.65;;;-3.10;79.50;;;;;;5011334;28;20120;-64
2023/01/22 00:55:48;;;;;;;58.40;30.23;;;-3.10;81.00;;;;;;5013019;28;20033;-64
2023/01/22 00:58:14;;;;;;;51.95;28.00;;;-3.20;80.90;;;;;;5012942;28;20029;-64
2023/01/22 01:00:39;;;;;;;49.78;27.83;;;-3.20;80.30;;;;;;5014451;28;20030;-64
2023/01/22 01:05:49;;;;;;;65.30;32.70;;;-3.00;80.60;;;;;;5012764;28;20041;-64
2023/01/22 01:08:15;;;;;;;79.90;36.55;;;-3.10;81.90;;;;;;5010949;28;20029;-64
2023/01/22 01:10:40;;;;;;;70.78;34.95;;;-3.10;82.00;;;;;;4986516;28;20128;-64
2023/01/22 01:13:07;;;;;;;64.40;33.05;;;-3.20;80.90;;;;;;5014197;28;20415;-63
2023/01/22 01:15:33;;;;;;;57.00;30.52;;;-3.20;80.20;;;;;;5013942;28;20042;-62
2023/01/22 01:17:59;;;;;;;77.10;35.45;;;-3.10;79.50;;;;;;5005748;28;20025;-62
2023/01/22 01:20:25;;;;;;;71.00;35.17;;;-3.10;78.90;;;;;;5015328;28;20112;-62
2023/01/22 01:22:53;;;;;;;59.45;29.88;;;-3.10;79.90;;;;;;5008414;28;20093;-62
2023/01/22 01:25:18;;;;;;;53.22;29.20;;;-3.00;78.50;;;;;;4993404;28;20034;-63
2023/01/22 01:27:44;;;;;;;68.95;32.28;;;-3.00;79.40;;;;;;4989279;28;20043;-63
2023/01/22 01:30:10;;;;;;;60.45;30.50;;;-3.00;79.70;;;;;;4990049;28;20121;-62
2023/01/22 01:32:35;;;;;;;61.00;30.60;;;-3.10;80.30;;;;;;4990222;28;21304;-62
2023/01/22 01:35:01;;;;;;;60.47;30.85;;;-3.10;80.60;;;;;;4995892;28;20347;-64
2023/01/22 01:37:26;;;;;;;62.03;29.83;;;-3.10;80.20;;;;;;4989624;28;20666;-62
2023/01/22 01:39:52;;;;;;;60.80;31.77;;;-3.10;79.40;;;;;;5005170;28;20463;-64
2023/01/22 01:42:28;;;;;;;51.70;26.98;;;-3.10;79.70;;;;;;5012900;28;20099;-63
2023/01/22 01:45:31;;;;;;;61.13;31.35;;;-3.10;79.10;;;;;;5012336;28;20095;-63
2023/01/22 01:48:20;;;;;;;51.30;27.17;;;-3.10;79.80;;;;;;5011718;28;20426;-64
2023/01/22 01:50:54;;;;;;;54.00;28.27;;;-3.10;79.10;;;;;;5000100;28;20867;-64
2023/01/22 01:53:20;;;;;;;66.55;31.58;;;-3.10;79.70;;;;;;4995437;28;20434;-63
2023/01/22 01:55:45;;;;;;;51.95;27.40;;;-3.10;79.80;;;;;;5010599;28;20034;-63
2023/01/22 01:58:20;;;;;;;55.60;27.70;;;-3.10;79.10;;;;;;5012498;28;20331;-63
2023/01/22 02:00:50;;;;;;;45.55;24.95;;;-3.00;79.70;;;;;;5011844;28;20323;-63
2023/01/22 02:03:17;;;;;;;48.95;25.98;;;-3.00;79.80;;;;;;5015866;28;20033;-63
2023/01/22 02:05:42;;;;;;;49.95;26.95;;;-3.00;80.40;;;;;;5016288;28;20084;-63
2023/01/22 02:08:08;;;;;;;46.50;25.38;;;-3.00;79.70;;;;;;5013507;28;20033;-63
2023/01/22 02:10:35;;;;;;;53.05;28.08;;;-3.00;80.30;;;;;;5015154;28;20389;-63
2023/01/22 02:13:06;;;;;;;57.75;28.50;;;-3.00;80.10;;;;;;5011281;28;20034;-63
2023/01/22 02:15:32;;;;;;;60.72;29.55;;;-3.00;80.30;;;;;;5014840;28;20129;-64
2023/01/22 02:17:57;;;;;;;59.10;29.17;;;-2.90;80.10;;;;;;5009599;28;20022;-63
2023/01/22 02:20:23;;;;;;;47.97;27.10;;;-2.90;81.30;;;;;;5014389;28;20057;-63
2023/01/22 02:22:48;;;;;;;55.35;28.77;;;-3.00;81.90;;;;;;5015411;28;20407;-64
2023/01/22 02:25:14;;;;;;;67.45;30.65;;;-3.00;81.60;;;;;;5012792;28;20318;-64
2023/01/22 02:27:40;;;;;;;51.15;26.85;;;-3.00;81.40;;;;;;4997352;28;20034;-64
2023/01/22 02:30:06;;;;;;;58.85;29.15;;;-3.00;81.10;;;;;;4999363;28;20033;-63
2023/01/22 02:32:32;;;;;;;46.22;26.27;;;-3.00;81.70;;;;;;5014915;28;20330;-63
2023/01/22 02:34:58;;;;;;;48.95;26.08;;;-3.00;80.70;;;;;;5016842;28;20037;-63
2023/01/22 02:37:23;;;;;;;52.03;28.17;;;-3.00;80.30;;;;;;5013420;28;20026;-63
2023/01/22 02:39:49;;;;;;;60.17;30.95;;;-3.00;81.50;;;;;;5013925;28;20481;-63
2023/01/22 02:42:14;;;;;;;45.70;25.42;;;-3.00;80.80;;;;;;5014678;28;20038;-63
2023/01/22 02:44:40;;;;;;;55.05;28.42;;;-3.00;81.00;;;;;;5010471;28;20029;-64
2023/01/22 02:47:05;;;;;;;49.03;26.77;;;-3.00;81.30;;;;;;5010836;28;20038;-63
2023/01/22 02:49:31;;;;;;;45.75;24.55;;;-3.00;81.10;;;;;;5012073;28;20034;-63
2023/01/22 02:51:56;;;;;;;41.95;23.77;;;-3.00;80.30;;;;;;5016801;28;20044;-63
2023/01/22 02:54:22;;;;;;;59.47;29.33;;;-2.90;79.90;;;;;;5018606;28;20041;-63
2023/01/22 02:56:47;;;;;;;60.25;28.08;;;-2.90;80.80;;;;;;5014709;28;20101;-63
2023/01/22 02:59:13;;;;;;;56.67;29.52;;;-2.90;80.60;;;;;;5017981;28;20034;-63
2023/01/22 03:01:38;;;;;;;52.72;25.55;;;-2.90;81.70;;;;;;5017582;28;20022;-63
2023/01/22 03:04:09;;;;;;;50.92;26.65;;;-2.90;80.30;;;;;;5010049;28;20076;-65
2023/01/22 03:06:40;;;;;;;55.03;27.45;;;-2.90;80.80;;;;;;4986964;28;20041;-65
2023/01/22 03:09:06;;;;;;;56.83;29.85;;;-2.90;80.40;;;;;;5008008;28;20119;-64
2023/01/22 03:11:34;;;;;;;50.75;26.75;;;-2.90;81.40;;;;;;5018485;28;20129;-64
2023/01/22 03:22:14;;;;;;;67.93;29.92;;;-2.90;80.20;;;;;;5011005;28;20012;-65
2023/01/22 03:24:40;;;;;;;55.42;28.13;;;-3.00;79.90;;;;;;5011479;28;20068;-65
2023/01/22 03:27:06;;;;;;;55.60;30.25;;;-2.90;79.30;;;;;;5015563;28;20029;-64
2023/01/22 03:29:32;;;;;;;66.05;31.25;;;-2.90;79.70;;;;;;5022362;28;20152;-64
2023/01/22 03:31:57;;;;;;;67.50;30.75;;;-2.80;80.10;;;;;;5016530;28;20026;-64
2023/01/22 03:34:25;;;;;;;57.28;28.42;;;-2.90;81.00;;;;;;5016064;28;20072;-64
2023/01/22 03:36:51;;;;;;;51.90;26.48;;;-2.90;80.60;;;;;;5018517;28;20026;-64
2023/01/22 03:39:17;;;;;;;54.70;27.35;;;-2.90;79.30;;;;;;5013821;28;20163;-64
2023/01/22 03:41:42;;;;;;;52.30;28.25;;;-2.90;79.90;;;;;;5015673;28;20038;-64
2023/01/22 03:44:10;;;;;;;53.53;26.88;;;-2.80;79.40;;;;;;5018166;28;20315;-64
2023/01/22 03:46:38;;;;;;;57.80;29.17;;;-2.90;79.90;;;;;;5010149;28;20037;-64
2023/01/22 03:49:03;;;;;;;65.55;31.27;;;-2.90;79.10;;;;;;4993259;28;20464;-63
2023/01/22 03:51:29;;;;;;;53.20;27.55;;;-2.80;78.40;;;;;;4990649;28;20034;-63
2023/01/22 03:53:55;;;;;;;52.85;25.67;;;-2.80;79.40;;;;;;4998191;28;20109;-64
2023/01/22 03:56:22;;;;;;;57.47;27.45;;;-2.80;79.00;;;;;;5017688;28;20026;-64
2023/01/22 03:58:48;;;;;;;60.65;29.25;;;-2.80;78.20;;;;;;5010838;28;20177;-64
2023/01/22 04:01:17;;;;;;;58.63;27.30;;;-2.80;78.20;;;;;;5002818;28;20023;-64
2023/01/22 04:03:43;;;;;;;58.40;28.25;;;-2.80;77.90;;;;;;4999663;28;20095;-63
2023/01/22 04:06:10;;;;;;;50.65;24.67;;;-2.80;78.30;;;;;;5007137;28;20030;-64
2023/01/22 04:08:37;;;;;;;62.35;26.33;;;-2.80;77.90;;;;;;5015215;28;20049;-64
2023/01/22 04:11:03;;;;;;;69.45;26.77;;;-2.80;77.90;;;;;;5018050;28;20049;-64
2023/01/22 04:13:31;;;;;;;49.13;24.40;;;-2.80;78.00;;;;;;5012866;28;20034;-64
2023/01/22 04:15:57;;;;;;;63.65;27.35;;;-2.70;77.20;;;;;;4996238;28;20042;-64
2023/01/22 04:18:22;;;;;;;57.92;25.30;;;-2.70;77.90;;;;;;5012990;28;20022;-64
2023/01/22 04:20:49;;;;;;;76.18;30.75;;;-2.80;77.70;;;;;;5015137;28;20095;-64
2023/01/22 04:23:15;;;;;;;38.45;20.75;;;-2.80;77.60;;;;;;5010111;28;20030;-63
2023/01/22 04:25:41;;;;;;;62.95;27.20;;;-2.70;76.20;;;;;;5018226;28;20037;-64
2023/01/22 04:28:09;;;;;;;71.45;30.15;;;-2.70;77.60;;;;;;5013433;28;20026;-64
2023/01/22 04:30:35;;;;;;;39.85;23.42;;;-2.80;77.90;;;;;;5012547;28;20041;-64
2023/01/22 04:33:01;;;;;;;62.55;26.92;;;-2.70;76.60;;;;;;5014543;28;20030;-63
2023/01/22 04:35:26;;;;;;;54.95;25.92;;;-2.70;76.30;;;;;;5015112;28;20038;-64
2023/01/22 04:37:52;;;;;;;53.00;25.50;;;-2.70;77.50;;;;;;5013833;28;20101;-63
2023/01/22 04:40:19;;;;;;;42.45;23.13;;;-2.70;77.40;;;;;;5018884;28;20053;-64
2023/01/22 04:42:45;;;;;;;82.95;31.85;;;-2.60;76.70;;;;;;5016099;28;20362;-64
2023/01/22 04:45:11;;;;;;;54.00;25.35;;;-2.70;77.80;;;;;;5012074;28;20057;-63
2023/01/22 04:47:41;;;;;;;82.40;29.50;;;-2.70;78.00;;;;;;5012836;28;20040;-63
2023/01/22 04:50:11;;;;;;;49.92;22.52;;;-2.70;76.70;;;;;;5018965;28;20032;-64
2023/01/22 04:52:37;;;;;;;53.83;24.60;;;-2.70;76.50;;;;;;5007664;28;20026;-64
2023/01/22 04:55:03;;;;;;;87.93;29.40;;;-2.70;76.60;;;;;;5006906;28;20188;-64
2023/01/22 04:57:28;;;;;;;76.00;27.25;;;-2.70;76.30;;;;;;5013028;28;20064;-63
2023/01/22 04:59:54;;;;;;;70.72;28.63;;;-2.60;76.00;;;;;;5011912;28;20030;-64
2023/01/22 05:02:19;;;;;;;96.10;31.58;;;-2.60;76.60;;;;;;5011803;28;20037;-63
2023/01/22 05:04:45;;;;;;;45.17;24.30;;;-2.60;76.30;;;;;;5016974;28;20061;-64
2023/01/22 05:07:10;;;;;;;47.75;23.35;;;-2.60;75.70;;;;;;5012507;28;20045;-64
2023/01/22 05:09:36;;;;;;;51.67;24.55;;;-2.50;75.40;;;;;;5014047;28;20352;-64
2023/01/22 05:12:07;;;;;;;45.70;22.67;;;-2.50;76.30;;;;;;5016929;28;20522;-64
2023/01/22 05:14:32;;;;;;;55.65;24.83;;;-2.50;76.60;;;;;;5017748;28;20034;-64
2023/01/22 05:16:58;;;;;;;79.93;28.27;;;-2.50;77.40;;;;;;5016090;28;20308;-63
2023/01/22 05:19:24;;;;;;;98.95;30.05;;;-2.50;77.00;;;;;;5013083;28;20038;-64
2023/01/22 05:21:49;;;;;;;44.80;21.60;;;-2.50;78.10;;;;;;5012344;28;20018;-64
2023/01/22 05:24:15;;;;;;;62.17;23.58;;;-2.50;76.00;;;;;;5013128;28;20038;-64
2023/01/22 05:26:40;;;;;;;61.88;24.05;;;-2.40;76.10;;;;;;5015295;28;20044;-64
2023/01/22 05:29:06;;;;;;;37.83;20.95;;;-2.30;75.30;;;;;;5014608;28;20018;-64
2023/01/22 05:31:31;;;;;;;42.80;21.85;;;-2.30;76.20;;;;;;5013300;28;20026;-62
2023/01/22 05:33:57;;;;;;;67.57;25.77;;;-2.40;77.80;;;;;;5014866;28;20032;-63
2023/01/22 05:36:23;;;;;;;48.80;23.50;;;-2.40;76.70;;;;;;5011860;28;20040;-63
2023/01/22 05:38:48;;;;;;;37.13;20.92;;;-2.40;77.20;;;;;;5017869;28;20037;-63
2023/01/22 05:41:14;;;;;;;48.13;24.92;;;-2.40;76.10;;;;;;5014225;28;20026;-63
2023/01/22 05:43:39;;;;;;;58.58;27.80;;;-2.40;77.40;;;;;;5013763;28;20036;-63
2023/01/22 05:46:05;;;;;;;56.17;32.63;;;-2.40;77.80;;;;;;5017842;28;20140;-62
2023/01/22 05:48:31;;;;;;;59.40;30.45;;;-2.50;77.80;;;;;;5014566;28;20061;-63
2023/01/22 05:51:01;;;;;;;54.88;27.17;;;-2.40;77.00;;;;;;5013819;28;20022;-64
2023/01/22 05:53:26;;;;;;;43.95;22.98;;;-2.50;77.60;;;;;;5013965;28;20080;-62
2023/01/22 05:55:52;;;;;;;54.35;29.42;;;-2.50;77.70;;;;;;5013694;28;20500;-62
2023/01/22 05:58:17;;;;;;;39.17;22.85;;;-2.50;77.20;;;;;;5015526;28;20065;-65
2023/01/22 06:00:43;;;;;;;32.33;18.15;;;-2.40;77.30;;;;;;5010565;28;20026;-64
2023/01/22 06:03:14;;;;;;;36.88;18.60;;;-2.40;77.20;;;;;;5015362;28;20072;-63
2023/01/22 06:05:40;;;;;;;33.60;18.77;;;-2.40;77.50;;;;;;5009725;28;20032;-64
2023/01/22 06:08:05;;;;;;;39.42;20.98;;;-2.30;78.20;;;;;;5014082;28;20033;-63
2023/01/22 06:10:31;;;;;;;38.15;20.30;;;-2.30;78.30;;;;;;5023010;28;20099;-63
2023/01/22 06:12:57;;;;;;;30.92;18.02;;;-2.30;79.60;;;;;;5024553;28;20030;-63
2023/01/22 06:15:22;;;;;;;29.20;16.85;;;-2.30;78.50;;;;;;5012187;28;20117;-63
2023/01/22 06:17:48;;;;;;;36.65;18.63;;;-2.30;80.00;;;;;;5014832;28;20101;-63
2023/01/22 06:20:13;;;;;;;37.65;19.30;;;-2.40;80.00;;;;;;5012086;28;20109;-63
2023/01/22 06:22:39;;;;;;;30.67;16.98;;;-2.30;79.00;;;;;;5013638;28;20026;-63
2023/01/22 06:25:04;;;;;;;44.08;20.13;;;-2.30;78.60;;;;;;5008850;28;20033;-62
2023/01/22 06:27:30;;;;;;;34.17;17.10;;;-2.30;81.20;;;;;;5012337;28;20029;-63
2023/01/22 06:29:56;;;;;;;35.35;17.17;;;-2.40;81.10;;;;;;5007190;28;20048;-63
2023/01/22 06:32:21;;;;;;;27.33;15.35;;;-2.50;80.60;;;;;;5013629;28;20071;-62
2023/01/22 06:34:47;;;;;;;29.13;15.57;;;-2.50;80.10;;;;;;5012662;28;20030;-63
2023/01/22 06:37:12;;;;;;;30.73;16.77;;;-2.40;80.00;;;;;;5012065;28;20025;-63
2023/01/22 06:39:38;;;;;;;32.95;17.42;;;-2.40;80.40;;;;;;5003409;28;20034;-61
2023/01/22 06:42:04;;;;;;;31.17;17.05;;;-2.40;81.00;;;;;;5014299;28;20033;-63
2023/01/22 06:44:30;;;;;;;34.55;17.38;;;-2.40;80.50;;;;;;5006040;28;20029;-62
2023/01/22 06:46:55;;;;;;;50.22;21.13;;;-2.40;80.10;;;;;;4981632;28;20038;-63
2023/01/22 06:49:21;;;;;;;36.17;17.55;;;-2.40;80.30;;;;;;5008152;28;20080;-62
2023/01/22 06:51:46;;;;;;;42.03;20.10;;;-2.40;80.10;;;;;;5007030;28;20456;-63
2023/01/22 06:54:12;;;;;;;27.60;15.30;;;-2.40;80.00;;;;;;5013280;28;20096;-63
2023/01/22 06:56:37;;;;;;;29.25;15.77;;;-2.40;79.50;;;;;;5015507;28;20050;-63
2023/01/22 06:59:03;;;;;;;40.55;20.02;;;-2.30;78.70;;;;;;5013898;28;20030;-63
2023/01/22 07:01:29;;;;;;;30.48;16.58;;;-2.30;80.40;;;;;;5010393;28;20022;-63
2023/01/22 07:03:55;;;;;;;42.65;19.10;;;-2.30;80.80;;;;;;5013176;28;20101;-62
2023/01/22 07:06:21;;;;;;;37.72;17.98;;;-2.30;80.70;;;;;;5006097;28;20037;-63
2023/01/22 07:08:46;;;;;;;35.67;17.77;;;-2.30;81.20;;;;;;5010075;28;20026;-63
2023/01/22 07:11:14;;;;;;;44.85;19.23;;;-2.20;80.80;;;;;;5012186;28;20331;-63
2023/01/22 07:13:40;;;;;;;32.67;17.30;;;-2.20;82.50;;;;;;5012861;28;20030;-63
2023/01/22 07:16:06;;;;;;;40.97;19.52;;;-2.20;81.40;;;;;;5006055;28;21685;-63
2023/01/22 07:18:31;;;;;;;32.03;17.50;;;-2.10;82.40;;;;;;5011247;28;20028;-64
2023/01/22 07:21:01;;;;;;;30.73;16.15;;;-2.10;83.20;;;;;;5013068;28;20411;-63
2023/01/22 07:23:27;;;;;;;33.53;18.38;;;-2.10;83.90;;;;;;5013625;28;20084;-63
2023/01/22 07:25:52;;;;;;;41.90;19.48;;;-2.10;84.20;;;;;;4982693;28;20324;-64
2023/01/22 07:28:18;;;;;;;33.95;18.50;;;-2.10;83.90;;;;;;5011086;28;20088;-63
2023/01/22 07:30:45;;;;;;;49.42;21.05;;;-2.20;83.80;;;;;;5004803;28;20033;-63
2023/01/22 07:33:11;;;;;;;38.97;19.88;;;-2.10;83.30;;;;;;4995663;28;20042;-63
2023/01/22 07:35:37;;;;;;;50.80;22.33;;;-2.00;82.20;;;;;;5005205;28;20022;-63
2023/01/22 07:38:03;;;;;;;38.47;19.40;;;-2.00;83.90;;;;;;4998994;28;20048;-63
2023/01/22 07:40:28;;;;;;;43.78;20.38;;;-2.00;83.40;;;;;;4999101;28;20030;-63
2023/01/22 07:42:54;;;;;;;44.25;20.52;;;-2.00;82.80;;;;;;5000645;28;20032;-63
2023/01/22 07:45:23;;;;;;;86.38;27.55;;;-2.00;84.10;;;;;;5001723;28;20509;-63
2023/01/22 07:47:56;;;;;;;53.53;21.20;;;-2.00;85.40;;;;;;5003155;28;20062;-63
2023/01/22 07:50:24;;;;;;;45.85;19.95;;;-2.10;83.50;;;;;;5015649;28;20049;-64
2023/01/22 07:52:50;;;;;;;73.53;26.73;;;-2.20;83.30;;;;;;5013612;28;20088;-63
2023/01/22 07:55:16;;;;;;;63.97;24.02;;;-2.10;82.50;;;;;;5012815;28;20034;-63
2023/01/22 07:57:42;;;;;;;59.63;22.55;;;-2.10;82.70;;;;;;5016094;28;20125;-63
2023/01/22 08:00:11;;;;;;;45.28;20.55;;;-2.10;82.00;;;;;;5012835;28;20030;-63
2023/01/22 08:02:38;;;;;;;43.90;19.80;;;-2.10;81.60;;;;;;5010815;28;20021;-63
2023/01/22 08:05:04;;;;;;;54.55;23.52;;;-2.00;81.50;;;;;;5016093;28;20034;-63
2023/01/22 08:07:30;;;;;;;52.42;22.08;;;-1.90;81.60;;;;;;5013607;28;20026;-63
2023/01/22 08:09:56;;;;;;;49.90;24.02;;;-1.80;81.50;;;;;;5017764;28;20803;-63
2023/01/22 08:12:22;;;;;;;37.00;18.35;;;-1.70;82.10;;;;;;5014265;28;20040;-63
2023/01/22 08:14:48;;;;;;;40.60;18.67;;;-1.80;84.90;;;;;;5012813;28;20034;-63
2023/01/22 08:17:13;;;;;;;39.50;19.30;;;-1.80;85.30;;;;;;5012456;28;20434;-63
2023/01/22 08:19:39;;;;;;;48.00;25.27;;;-1.80;86.10;;;;;;5013650;28;20034;-63
2023/01/22 08:22:05;;;;;;;58.30;27.05;;;-1.70;85.80;;;;;;5015520;28;20037;-63
2023/01/22 08:24:31;;;;;;;75.75;32.92;;;-1.70;86.40;;;;;;5017944;28;20042;-63
2023/01/22 08:26:57;;;;;;;62.13;28.83;;;-1.60;86.80;;;;;;5015726;28;20034;-63
2023/01/22 08:29:25;;;;;;;67.40;30.20;;;-1.50;87.20;;;;;;5014248;28;20392;-63
2023/01/22 08:31:52;;;;;;;53.65;25.20;;;-1.50;86.60;;;;;;5013945;28;20025;-63
2023/01/22 08:34:18;;;;;;;49.15;23.88;;;-1.40;87.90;;;;;;5010609;28;20026;-63
2023/01/22 08:36:44;;;;;;;46.13;24.25;;;-1.30;87.20;;;;;;5016661;28;20022;-63
2023/01/22 08:39:09;;;;;;;41.95;21.58;;;-1.10;87.00;;;;;;5012542;28;20079;-63
2023/01/22 08:41:35;;;;;;;44.05;21.15;;;-0.90;89.10;;;;;;5012318;28;20038;-63
2023/01/22 08:44:01;;;;;;;41.13;21.10;;;-0.80;94.40;;;;;;5016715;28;20033;-63
2023/01/22 08:46:27;;;;;;;42.22;21.90;;;-0.90;94.20;;;;;;5014199;28;20026;-63
2023/01/22 08:48:52;;;;;;;39.22;22.30;;;-0.70;94.40;;;;;;5015151;28;20363;-63
2023/01/22 08:51:18;;;;;;;38.75;20.27;;;-0.60;95.20;;;;;;5014587;28;20030;-63
2023/01/22 08:53:44;;;;;;;33.70;18.60;;;-0.40;96.50;;;;;;5015284;28;20032;-64
2023/01/22 08:56:10;;;;;;;39.45;21.25;;;-0.20;98.00;;;;;;5017399;28;20038;-65
2023/01/22 08:58:35;;;;;;;42.45;20.15;;;0.00;98.00;;;;;;5016109;28;20033;-64
2023/01/22 09:01:01;;;;;;;40.08;21.02;;;0.10;98.00;;;;;;5015399;28;20033;-64
2023/01/22 09:03:28;;;;;;;34.53;18.38;;;0.20;98.00;;;;;;5014468;28;20022;-64
2023/01/22 09:05:53;;;;;;;55.05;20.95;;;0.40;98.00;;;;;;5024040;28;20037;-64
2023/01/22 09:08:20;;;;;;;51.55;21.10;;;0.60;98.00;;;;;;5010173;28;20037;-64
2023/01/22 09:10:46;;;;;;;46.17;21.05;;;0.70;98.00;;;;;;5013666;28;20049;-64
2023/01/22 09:13:11;;;;;;;40.28;20.30;;;0.40;98.00;;;;;;5015867;28;20411;-64
2023/01/22 09:15:39;;;;;;;49.38;22.80;;;0.30;98.00;;;;;;5016080;28;20045;-64
2023/01/22 09:18:05;;;;;;;46.90;23.10;;;0.10;98.00;;;;;;5011181;28;20034;-64
2023/01/22 09:20:30;;;;;;;40.53;21.85;;;0.00;98.00;;;;;;5014010;28;20076;-64
2023/01/22 09:22:56;;;;;;;44.60;22.70;;;0.20;98.00;;;;;;5010647;28;20044;-64
2023/01/22 09:25:22;;;;;;;38.40;21.13;;;0.30;98.00;;;;;;5012964;28;20053;-65
2023/01/22 09:27:47;;;;;;;41.15;21.35;;;0.30;98.00;;;;;;5014939;28;20030;-64
2023/01/22 09:30:13;;;;;;;43.75;21.02;;;0.20;98.00;;;;;;5011776;28;20386;-62
2023/01/22 09:32:40;;;;;;;40.78;20.63;;;0.20;98.00;;;;;;5013239;28;20029;-64
2023/01/22 09:35:07;;;;;;;36.25;20.00;;;0.20;98.00;;;;;;5011980;28;20030;-64
2023/01/22 09:37:33;;;;;;;44.25;22.55;;;0.40;98.00;;;;;;5009751;28;20679;-64
2023/01/22 09:39:58;;;;;;;38.50;20.67;;;0.40;98.00;;;;;;5006325;28;20034;-64
2023/01/22 09:42:33;;;;;;;36.08;19.30;;;0.30;98.00;;;;;;5010941;28;20041;-64
2023/01/22 09:45:08;;;;;;;35.25;17.33;;;0.10;98.00;;;;;;5008917;28;20030;-64
2023/01/22 09:47:42;;;;;;;45.50;24.42;;;0.10;98.00;;;;;;5013230;28;20439;-64
2023/01/22 09:50:23;;;;;;;53.75;26.00;;;0.20;98.00;;;;;;5011990;28;20026;-64
2023/01/22 09:52:53;;;;;;;47.33;21.92;;;0.10;98.00;;;;;;5013582;28;20030;-64
2023/01/22 09:55:22;;;;;;;55.00;25.70;;;-0.10;98.00;;;;;;5012381;28;20116;-63
2023/01/22 09:57:53;;;;;;;50.88;25.50;;;-0.20;98.00;;;;;;5008411;28;20326;-64
2023/01/22 10:00:43;;;;;;;42.35;21.23;;;-0.10;98.00;;;;;;5009726;28;20034;-64
2023/01/22 10:03:19;;;;;;;48.15;24.42;;;0.10;98.00;;;;;;5015764;28;20026;-64
2023/01/22 10:05:55;;;;;;;46.78;22.30;;;0.00;98.00;;;;;;5012091;28;20040;-64
2023/01/22 10:08:29;;;;;;;43.25;21.25;;;-0.10;98.00;;;;;;5012764;28;20092;-63
2023/01/22 10:10:56;;;;;;;47.83;22.48;;;-0.20;98.00;;;;;;5013682;28;20371;-64
2023/01/22 10:13:35;;;;;;;53.65;24.67;;;-0.30;98.00;;;;;;5012175;28;20038;-64
2023/01/22 10:16:01;;;;;;;44.42;20.98;;;-0.20;98.00;;;;;;5011424;28;20040;-64
2023/01/22 10:18:42;;;;;;;38.47;19.33;;;-0.10;98.00;;;;;;5015412;28;20419;-64
2023/01/22 10:21:20;;;;;;;37.03;19.20;;;-0.10;98.00;;;;;;5013223;28;20088;-64
2023/01/22 10:23:47;;;;;;;41.33;21.17;;;0.10;98.00;;;;;;5011546;28;20372;-64
2023/01/22 10:26:23;;;;;;;49.70;22.83;;;0.30;98.00;;;;;;5011777;28;20486;-64
2023/01/22 10:28:53;;;;;;;45.28;22.85;;;0.10;98.00;;;;;;5011053;28;20034;-64
2023/01/22 10:31:28;;;;;;;51.40;22.80;;;-0.10;98.00;;;;;;5011655;28;20030;-63
2023/01/22 10:34:03;;;;;;;46.47;22.58;;;0.00;98.00;;;;;;5009680;28;20022;-64
2023/01/22 10:36:31;;;;;;;34.88;16.90;;;0.00;98.00;;;;;;5009303;28;20026;-64
2023/01/22 10:39:12;;;;;;;31.25;17.00;;;0.00;98.00;;;;;;5012101;28;20486;-64
2023/01/22 10:41:38;;;;;;;31.65;16.85;;;0.10;98.00;;;;;;5013977;28;20029;-64
2023/01/22 10:44:09;;;;;;;34.25;17.95;;;0.50;98.00;;;;;;5013388;28;20029;-64
2023/01/22 10:46:36;;;;;;;37.47;19.90;;;0.50;98.00;;;;;;5012552;28;20022;-64
2023/01/22 10:49:04;;;;;;;34.30;18.63;;;0.40;98.00;;;;;;5011666;28;20045;-64
2023/01/22 10:51:39;;;;;;;27.88;15.15;;;0.30;98.00;;;;;;5009541;28;20085;-64
2023/01/22 10:54:17;;;;;;;27.02;15.02;;;0.30;98.00;;;;;;5009496;28;21886;-64
2023/01/22 10:56:44;;;;;;;25.73;14.90;;;0.50;98.00;;;;;;5012705;28;20426;-64
2023/01/22 10:59:24;;;;;;;26.17;15.70;;;0.60;98.00;;;;;;5012407;28;20449;-64
2023/01/22 11:02:22;;;;;;;26.80;15.48;;;0.80;98.00;;;;;;5009873;28;20037;-64
2023/01/22 11:04:48;;;;;;;21.15;12.82;;;0.70;98.00;;;;;;5010583;28;20038;-64
2023/01/22 11:07:18;;;;;;;27.60;15.88;;;0.50;98.00;;;;;;5009882;28;20029;-64
2023/01/22 11:09:50;;;;;;;26.67;16.38;;;0.50;98.00;;;;;;5009890;28;20033;-64
2023/01/22 11:12:38;;;;;;;30.13;18.25;;;0.60;98.00;;;;;;5012537;28;20064;-64
2023/01/22 11:15:33;;;;;;;35.20;21.58;;;0.60;98.00;;;;;;5014324;28;20083;-64
2023/01/22 11:18:01;;;;;;;30.67;17.30;;;0.60;98.00;;;;;;5011663;28;20109;-64
2023/01/22 11:20:45;;;;;;;28.35;16.38;;;0.70;98.00;;;;;;5013878;28;20337;-64
2023/01/22 11:23:46;;;;;;;47.28;29.13;;;0.60;98.00;;;;;;5009740;28;20026;-64
2023/01/22 11:26:27;;;;;;;29.85;16.80;;;0.40;98.00;;;;;;5014104;28;20021;-64
2023/01/22 11:29:10;;;;;;;27.80;15.93;;;0.30;98.00;;;;;;5013233;28;20026;-64
2023/01/22 11:32:00;;;;;;;24.80;14.60;;;0.00;98.00;;;;;;4992933;28;20331;-64
2023/01/22 11:34:50;;;;;;;29.98;17.02;;;0.00;98.00;;;;;;4996980;28;20042;-64
2023/01/22 11:37:21;;;;;;;27.98;15.93;;;0.30;98.00;;;;;;5009477;28;20033;-63
2023/01/22 11:39:46;;;;;;;30.92;18.25;;;0.30;98.00;;;;;;4994804;28;20025;-64
2023/01/22 11:42:26;;;;;;;38.28;21.80;;;0.20;98.00;;;;;;5015675;28;20105;-63
2023/01/22 11:45:11;;;;;;;27.08;15.25;;;0.40;98.00;;;;;;5005074;28;20080;-64
2023/01/22 11:47:45;;;;;;;23.83;13.07;;;0.60;98.00;;;;;;5014030;28;20346;-66
2023/01/22 11:50:28;;;;;;;21.27;13.00;;;0.70;98.00;;;;;;5015579;28;20034;-66
2023/01/22 11:53:01;;;;;;;24.38;13.10;;;0.80;98.00;;;;;;5011250;28;20034;-65
2023/01/22 11:56:04;;;;;;;20.45;12.02;;;0.70;98.00;;;;;;5012842;28;20116;-66
2023/01/22 11:58:41;;;;;;;23.15;13.32;;;0.70;98.00;;;;;;4996758;28;20084;-65
2023/01/22 12:01:40;;;;;;;20.45;12.68;;;1.00;98.00;;;;;;5014052;28;20045;-66
2023/01/22 12:04:30;;;;;;;19.20;11.73;;;1.30;98.00;;;;;;5014478;28;20105;-65
2023/01/22 12:07:19;;;;;;;17.60;10.60;;;1.60;97.50;;;;;;5013126;28;20025;-65
2023/01/22 12:10:14;;;;;;;20.25;12.25;;;1.50;97.00;;;;;;5011687;28;20037;-65
2023/01/22 12:12:50;;;;;;;18.10;9.88;;;1.20;97.60;;;;;;4996673;28;20034;-65
2023/01/22 12:16:03;;;;;;;17.05;9.90;;;1.20;97.50;;;;;;4979321;28;20034;-65
2023/01/22 12:18:40;;;;;;;14.88;8.70;;;1.20;97.80;;;;;;4940814;28;20042;-65
2023/01/22 12:21:45;;;;;;;13.50;8.85;;;1.30;97.70;;;;;;4996437;28;20026;-65
2023/01/22 12:24:22;;;;;;;13.15;8.30;;;1.30;97.60;;;;;;4970388;28;20035;-65
2023/01/22 12:27:02;;;;;;;16.13;10.88;;;1.30;97.80;;;;;;4998415;28;20487;-65
2023/01/22 12:30:29;;;;;;;13.90;8.40;;;1.20;97.30;;;;;;5015925;28;20034;-65
2023/01/22 12:32:58;;;;;;;15.52;9.75;;;1.10;98.00;;;;;;4955128;28;20378;-65
2023/01/22 12:35:25;;;;;;;14.55;8.55;;;1.00;98.00;;;;;;5016737;28;20075;-65
2023/01/22 12:38:14;;;;;;;17.52;10.20;;;0.80;98.00;;;;;;5016704;28;20101;-65
2023/01/22 12:40:54;;;;;;;14.30;8.50;;;0.70;98.00;;;;;;5015393;28;20426;-65
2023/01/22 12:43:32;;;;;;;13.73;8.50;;;0.80;98.00;;;;;;5017442;28;20105;-65
2023/01/22 12:46:06;;;;;;;17.77;10.88;;;0.80;98.00;;;;;;5017413;28;20018;-65
2023/01/22 12:48:50;;;;;;;;;;;0.80;98.00;;;;;;5017127;28;20093;-65
2023/01/22 12:51:34;;;;;;;12.63;7.75;;;1.10;98.00;;;;;;5012797;28;19971;-64
2023/01/22 12:54:26;;;;;;;16.70;9.85;;;1.20;97.60;;;;;;5011443;28;20026;-64